sensor_id;sensor_type;location;lat;lon;timestamp;temperature;humidity
1626;DHT22;806;48.770;9.156;2023-11-21T00:02:21;8.70;99.90
1626;DHT22;806;48.770;9.156;2023-11-21T00:04:49;8.60;99.90
1626;DHT22;806;48.770;9.156;2023-11-21T00:07:17;8.60;99.90
1626;DHT22;806;48.770;9.156;2023-11-21T00:09:44;8.70;99.90
1626;DHT22;806;48.770;9.156;2023-11-21T00:12:11;8.80;99.90
1626;DHT22;806;48.770;9.156;2023-11-21T00:14:39;8.70;99.90
1626;DHT22;806;48.770;9.156;2023-11-21T00:17:06;8.70;99.90
1626;DHT22;806;48.770;9.156;2023-11-21T00:19:33;8.70;99.90
1626;DHT22;806;48.770;9.156;2023-11-21T00:22:00;8.70;99.90
1626;DHT22;806;48.770;9.156;2023-11-21T00:24:28;8.80;99.90
1626;DHT22;806;48.770;9.156;2023-11-21T00:26:55;8.80;99.90
1626;DHT22;806;48.770;9.156;2023-11-21T00:29:23;8.80;99.90
1626;DHT22;806;48.770;9.156;2023-11-21T00:31:50;8.80;99.90
1626;DHT22;806;48.770;9.156;2023-11-21T00:34:17;8.80;99.90
1626;DHT22;806;48.770;9.156;2023-11-21T00:36:44;8.80;99.90
1626;DHT22;806;48.770;9.156;2023-11-21T00:39:11;8.90;99.90
1626;DHT22;806;48.770;9.156;2023-11-21T00:41:39;8.80;99.90
1626;DHT22;806;48.770;9.156;2023-11-21T00:44:07;8.70;99.90
1626;DHT22;806;48.770;9.156;2023-11-21T00:46:34;8.80;99.90
1626;DHT22;806;48.770;9.156;2023-11-21T00:49:01;8.70;99.90
1626;DHT22;806;48.770;9.156;2023-11-21T00:51:29;8.70;99.90
1626;DHT22;806;48.770;9.156;2023-11-21T00:53:57;8.90;99.90
1626;DHT22;806;48.770;9.156;2023-11-21T00:56:24;8.80;99.90
1626;DHT22;806;48.770;9.156;2023-11-21T00:58:53;8.80;99.90
1626;DHT22;806;48.770;9.156;2023-11-21T01:01:20;8.80;99.90
1626;DHT22;806;48.770;9.156;2023-11-21T01:03:47;8.80;99.90
1626;DHT22;806;48.770;9.156;2023-11-21T01:06:15;8.90;99.90
1626;DHT22;806;48.770;9.156;2023-11-21T01:08:43;8.90;99.90
1626;DHT22;806;48.770;9.156;2023-11-21T01:11:10;9.00;99.90
1626;DHT22;806;48.770;9.156;2023-11-21T01:13:38;9.10;99.90
1626;DHT22;806;48.770;9.156;2023-11-21T01:16:07;9.10;99.90
1626;DHT22;806;48.770;9.156;2023-11-21T01:18:35;9.10;99.90
1626;DHT22;806;48.770;9.156;2023-11-21T01:21:02;8.90;99.90
1626;DHT22;806;48.770;9.156;2023-11-21T01:23:29;8.90;99.90
1626;DHT22;806;48.770;9.156;2023-11-21T01:25:56;8.90;99.90
1626;DHT22;806;48.770;9.156;2023-11-21T01:28:23;8.90;99.90
1626;DHT22;806;48.770;9.156;2023-11-21T01:30:50;8.90;99.90
1626;DHT22;806;48.770;9.156;2023-11-21T01:33:20;8.80;99.90
1626;DHT22;806;48.770;9.156;2023-11-21T01:35:46;8.80;99.90
1626;DHT22;806;48.770;9.156;2023-11-21T01:38:13;8.90;99.90
1626;DHT22;806;48.770;9.156;2023-11-21T01:40:43;8.90;99.90
1626;DHT22;806;48.770;9.156;2023-11-21T01:43:10;9.10;99.90
1626;DHT22;806;48.770;9.156;2023-11-21T01:45:37;9.00;99.90
1626;DHT22;806;48.770;9.156;2023-11-21T01:48:05;9.00;99.90
1626;DHT22;806;48.770;9.156;2023-11-21T01:50:34;8.90;99.90
1626;DHT22;806;48.770;9.156;2023-11-21T01:53:01;8.90;99.90
1626;DHT22;806;48.770;9.156;2023-11-21T01:55:29;8.80;99.90
1626;DHT22;806;48.770;9.156;2023-11-21T01:57:56;8.90;99.90
1626;DHT22;806;48.770;9.156;2023-11-21T02:00:24;8.80;99.90
1626;DHT22;806;48.770;9.156;2023-11-21T02:02:51;8.80;99.90
1626;DHT22;806;48.770;9.156;2023-11-21T02:05:19;8.80;99.90
1626;DHT22;806;48.770;9.156;2023-11-21T02:07:48;8.80;99.90
1626;DHT22;806;48.770;9.156;2023-11-21T02:10:18;8.80;99.90
1626;DHT22;806;48.770;9.156;2023-11-21T02:12:48;8.80;99.90
1626;DHT22;806;48.770;9.156;2023-11-21T02:15:17;8.80;99.90
1626;DHT22;806;48.770;9.156;2023-11-21T02:17:46;8.80;99.90
1626;DHT22;806;48.770;9.156;2023-11-21T02:20:17;8.80;99.90
1626;DHT22;806;48.770;9.156;2023-11-21T02:22:49;8.80;99.90
1626;DHT22;806;48.770;9.156;2023-11-21T02:25:18;8.80;99.90
1626;DHT22;806;48.770;9.156;2023-11-21T02:27:45;8.80;99.90
1626;DHT22;806;48.770;9.156;2023-11-21T02:30:14;8.80;99.90
1626;DHT22;806;48.770;9.156;2023-11-21T02:32:41;8.80;99.90
1626;DHT22;806;48.770;9.156;2023-11-21T02:35:09;8.80;99.90
1626;DHT22;806;48.770;9.156;2023-11-21T02:37:38;8.80;99.90
1626;DHT22;806;48.770;9.156;2023-11-21T02:40:09;8.80;99.90
1626;DHT22;806;48.770;9.156;2023-11-21T02:42:38;8.70;99.90
1626;DHT22;806;48.770;9.156;2023-11-21T02:45:06;8.70;99.90
1626;DHT22;806;48.770;9.156;2023-11-21T02:47:34;8.70;99.90
1626;DHT22;806;48.770;9.156;2023-11-21T02:50:00;8.70;99.90
1626;DHT22;806;48.770;9.156;2023-11-21T02:52:27;8.70;99.90
1626;DHT22;806;48.770;9.156;2023-11-21T02:54:54;8.60;99.90
1626;DHT22;806;48.770;9.156;2023-11-21T02:57:23;8.60;99.90
1626;DHT22;806;48.770;9.156;2023-11-21T02:59:50;8.60;99.90
1626;DHT22;806;48.770;9.156;2023-11-21T03:02:17;8.50;99.90
1626;DHT22;806;48.770;9.156;2023-11-21T03:04:44;8.50;99.90
1626;DHT22;806;48.770;9.156;2023-11-21T03:07:11;8.60;99.90
1626;DHT22;806;48.770;9.156;2023-11-21T03:09:38;8.60;99.90
1626;DHT22;806;48.770;9.156;2023-11-21T03:12:05;8.60;99.90
1626;DHT22;806;48.770;9.156;2023-11-21T03:14:34;8.60;99.90
1626;DHT22;806;48.770;9.156;2023-11-21T03:17:01;8.50;99.90
1626;DHT22;806;48.770;9.156;2023-11-21T03:19:31;8.60;99.90
1626;DHT22;806;48.770;9.156;2023-11-21T03:21:58;8.60;99.90
1626;DHT22;806;48.770;9.156;2023-11-21T03:24:25;8.60;99.90
1626;DHT22;806;48.770;9.156;2023-11-21T03:26:52;8.60;99.90
1626;DHT22;806;48.770;9.156;2023-11-21T03:29:19;8.60;99.90
1626;DHT22;806;48.770;9.156;2023-11-21T03:31:47;8.60;99.90
1626;DHT22;806;48.770;9.156;2023-11-21T03:34:16;8.60;99.90
1626;DHT22;806;48.770;9.156;2023-11-21T03:36:43;8.60;99.90
1626;DHT22;806;48.770;9.156;2023-11-21T03:39:12;8.70;99.90
1626;DHT22;806;48.770;9.156;2023-11-21T03:41:38;8.70;99.90
1626;DHT22;806;48.770;9.156;2023-11-21T03:44:06;8.70;99.90
1626;DHT22;806;48.770;9.156;2023-11-21T03:46:33;8.60;99.90
1626;DHT22;806;48.770;9.156;2023-11-21T03:49:01;8.60;99.90
1626;DHT22;806;48.770;9.156;2023-11-21T03:51:28;8.60;99.90
1626;DHT22;806;48.770;9.156;2023-11-21T03:53:55;8.60;99.90
1626;DHT22;806;48.770;9.156;2023-11-21T03:56:22;8.60;99.90
1626;DHT22;806;48.770;9.156;2023-11-21T03:58:49;8.60;99.90
1626;DHT22;806;48.770;9.156;2023-11-21T04:01:20;8.60;99.90
1626;DHT22;806;48.770;9.156;2023-11-21T04:03:48;8.60;99.90
1626;DHT22;806;48.770;9.156;2023-11-21T04:06:17;8.60;99.90
1626;DHT22;806;48.770;9.156;2023-11-21T04:08:45;8.60;99.90
1626;DHT22;806;48.770;9.156;2023-11-21T04:11:12;8.60;99.90
1626;DHT22;806;48.770;9.156;2023-11-21T04:13:39;8.60;99.90
1626;DHT22;806;48.770;9.156;2023-11-21T04:16:07;8.50;99.90
1626;DHT22;806;48.770;9.156;2023-11-21T04:18:34;8.50;99.90
1626;DHT22;806;48.770;9.156;2023-11-21T04:21:01;8.50;99.90
1626;DHT22;806;48.770;9.156;2023-11-21T04:23:30;8.50;99.90
1626;DHT22;806;48.770;9.156;2023-11-21T04:25:58;8.50;99.90
1626;DHT22;806;48.770;9.156;2023-11-21T04:28:25;8.50;99.90
1626;DHT22;806;48.770;9.156;2023-11-21T04:30:52;8.70;99.90
1626;DHT22;806;48.770;9.156;2023-11-21T04:33:19;8.60;99.90
1626;DHT22;806;48.770;9.156;2023-11-21T04:35:47;8.60;99.90
1626;DHT22;806;48.770;9.156;2023-11-21T04:38:14;8.60;99.90
1626;DHT22;806;48.770;9.156;2023-11-21T04:40:42;8.50;99.90
1626;DHT22;806;48.770;9.156;2023-11-21T04:43:09;8.40;99.90
1626;DHT22;806;48.770;9.156;2023-11-21T04:45:36;8.30;99.90
1626;DHT22;806;48.770;9.156;2023-11-21T04:48:04;8.30;99.90
1626;DHT22;806;48.770;9.156;2023-11-21T04:50:32;8.30;99.90
1626;DHT22;806;48.770;9.156;2023-11-21T04:52:59;8.30;99.90
1626;DHT22;806;48.770;9.156;2023-11-21T04:55:26;8.20;99.90
1626;DHT22;806;48.770;9.156;2023-11-21T04:57:55;8.10;99.90
1626;DHT22;806;48.770;9.156;2023-11-21T05:00:22;8.10;99.90
1626;DHT22;806;48.770;9.156;2023-11-21T05:02:49;8.10;99.90
1626;DHT22;806;48.770;9.156;2023-11-21T05:05:16;8.10;99.90
1626;DHT22;806;48.770;9.156;2023-11-21T05:07:44;8.10;99.90
1626;DHT22;806;48.770;9.156;2023-11-21T05:10:11;8.20;99.90
1626;DHT22;806;48.770;9.156;2023-11-21T05:12:41;8.20;99.90
1626;DHT22;806;48.770;9.156;2023-11-21T05:15:10;8.20;99.90
1626;DHT22;806;48.770;9.156;2023-11-21T05:17:40;8.30;99.90
1626;DHT22;806;48.770;9.156;2023-11-21T05:20:09;8.30;99.90
1626;DHT22;806;48.770;9.156;2023-11-21T05:22:37;8.40;99.90
1626;DHT22;806;48.770;9.156;2023-11-21T05:25:06;8.40;99.90
1626;DHT22;806;48.770;9.156;2023-11-21T05:27:34;8.40;99.90
1626;DHT22;806;48.770;9.156;2023-11-21T05:30:01;8.40;99.90
1626;DHT22;806;48.770;9.156;2023-11-21T05:32:32;8.50;99.90
1626;DHT22;806;48.770;9.156;2023-11-21T05:34:59;8.50;99.90
1626;DHT22;806;48.770;9.156;2023-11-21T05:37:26;8.50;99.90
1626;DHT22;806;48.770;9.156;2023-11-21T05:39:53;8.50;99.90
1626;DHT22;806;48.770;9.156;2023-11-21T05:42:22;8.50;99.90
1626;DHT22;806;48.770;9.156;2023-11-21T05:44:49;8.50;99.90
1626;DHT22;806;48.770;9.156;2023-11-21T05:47:16;8.50;99.90
1626;DHT22;806;48.770;9.156;2023-11-21T05:49:45;8.50;99.90
1626;DHT22;806;48.770;9.156;2023-11-21T05:52:15;8.60;99.90
1626;DHT22;806;48.770;9.156;2023-11-21T05:54:42;8.70;99.90
1626;DHT22;806;48.770;9.156;2023-11-21T05:57:09;8.70;99.90
1626;DHT22;806;48.770;9.156;2023-11-21T05:59:37;8.70;99.90
1626;DHT22;806;48.770;9.156;2023-11-21T06:02:04;8.70;99.90
1626;DHT22;806;48.770;9.156;2023-11-21T06:04:33;8.60;99.90
1626;DHT22;806;48.770;9.156;2023-11-21T06:07:02;8.70;99.90
1626;DHT22;806;48.770;9.156;2023-11-21T06:09:30;8.80;99.90
1626;DHT22;806;48.770;9.156;2023-11-21T06:11:57;8.90;99.90
1626;DHT22;806;48.770;9.156;2023-11-21T06:14:24;8.80;99.90
1626;DHT22;806;48.770;9.156;2023-11-21T06:16:51;8.70;99.90
1626;DHT22;806;48.770;9.156;2023-11-21T06:19:18;8.70;99.90
1626;DHT22;806;48.770;9.156;2023-11-21T06:21:45;8.80;99.90
1626;DHT22;806;48.770;9.156;2023-11-21T06:24:14;9.00;99.90
1626;DHT22;806;48.770;9.156;2023-11-21T06:26:42;9.00;99.90
1626;DHT22;806;48.770;9.156;2023-11-21T06:29:10;9.00;99.90
1626;DHT22;806;48.770;9.156;2023-11-21T06:31:36;8.90;99.90
1626;DHT22;806;48.770;9.156;2023-11-21T06:34:05;8.90;99.90
1626;DHT22;806;48.770;9.156;2023-11-21T06:36:34;8.80;99.90
1626;DHT22;806;48.770;9.156;2023-11-21T06:39:01;8.80;99.90
1626;DHT22;806;48.770;9.156;2023-11-21T06:41:30;8.80;99.90
1626;DHT22;806;48.770;9.156;2023-11-21T06:43:57;8.70;99.90
1626;DHT22;806;48.770;9.156;2023-11-21T06:46:24;8.60;99.90
1626;DHT22;806;48.770;9.156;2023-11-21T06:48:52;8.60;99.90
1626;DHT22;806;48.770;9.156;2023-11-21T06:51:19;8.50;99.90
1626;DHT22;806;48.770;9.156;2023-11-21T06:53:46;8.50;99.90
1626;DHT22;806;48.770;9.156;2023-11-21T06:56:16;8.50;99.90
1626;DHT22;806;48.770;9.156;2023-11-21T06:58:47;8.50;99.90
1626;DHT22;806;48.770;9.156;2023-11-21T07:01:14;8.50;99.90
1626;DHT22;806;48.770;9.156;2023-11-21T07:03:41;8.50;99.90
1626;DHT22;806;48.770;9.156;2023-11-21T07:06:09;8.50;99.90
1626;DHT22;806;48.770;9.156;2023-11-21T07:08:36;8.50;99.90
1626;DHT22;806;48.770;9.156;2023-11-21T07:11:03;8.60;99.90
1626;DHT22;806;48.770;9.156;2023-11-21T07:13:30;8.80;99.90
1626;DHT22;806;48.770;9.156;2023-11-21T07:15:59;8.80;99.90
1626;DHT22;806;48.770;9.156;2023-11-21T07:18:26;8.80;99.90
1626;DHT22;806;48.770;9.156;2023-11-21T07:20:53;8.80;99.90
1626;DHT22;806;48.770;9.156;2023-11-21T07:23:20;8.70;99.90
1626;DHT22;806;48.770;9.156;2023-11-21T07:25:48;8.60;99.90
1626;DHT22;806;48.770;9.156;2023-11-21T07:28:15;8.60;99.90
1626;DHT22;806;48.770;9.156;2023-11-21T07:30:42;8.60;99.90
1626;DHT22;806;48.770;9.156;2023-11-21T07:33:11;8.50;99.90
1626;DHT22;806;48.770;9.156;2023-11-21T07:35:38;8.50;99.90
1626;DHT22;806;48.770;9.156;2023-11-21T07:38:05;8.50;99.90
1626;DHT22;806;48.770;9.156;2023-11-21T07:40:32;8.50;99.90
1626;DHT22;806;48.770;9.156;2023-11-21T07:42:58;8.50;99.90
1626;DHT22;806;48.770;9.156;2023-11-21T07:45:26;8.60;99.90
1626;DHT22;806;48.770;9.156;2023-11-21T07:47:54;8.60;99.90
1626;DHT22;806;48.770;9.156;2023-11-21T07:50:22;8.70;99.90
1626;DHT22;806;48.770;9.156;2023-11-21T07:52:49;8.80;99.90
1626;DHT22;806;48.770;9.156;2023-11-21T07:55:16;8.80;99.90
1626;DHT22;806;48.770;9.156;2023-11-21T07:57:43;8.80;99.90
1626;DHT22;806;48.770;9.156;2023-11-21T08:00:12;8.90;99.90
1626;DHT22;806;48.770;9.156;2023-11-21T08:02:41;8.90;99.90
1626;DHT22;806;48.770;9.156;2023-11-21T08:05:11;9.00;99.90
1626;DHT22;806;48.770;9.156;2023-11-21T08:07:40;9.00;99.90
1626;DHT22;806;48.770;9.156;2023-11-21T08:10:08;9.00;99.90
1626;DHT22;806;48.770;9.156;2023-11-21T08:12:36;8.90;99.90
1626;DHT22;806;48.770;9.156;2023-11-21T08:15:05;8.90;99.90
1626;DHT22;806;48.770;9.156;2023-11-21T08:17:33;8.90;99.90
1626;DHT22;806;48.770;9.156;2023-11-21T08:20:00;8.90;99.90
1626;DHT22;806;48.770;9.156;2023-11-21T08:22:29;8.90;99.90
1626;DHT22;806;48.770;9.156;2023-11-21T08:24:58;8.90;99.90
1626;DHT22;806;48.770;9.156;2023-11-21T08:27:25;8.90;99.90
1626;DHT22;806;48.770;9.156;2023-11-21T08:29:52;8.90;99.90
1626;DHT22;806;48.770;9.156;2023-11-21T08:32:20;9.00;99.90
1626;DHT22;806;48.770;9.156;2023-11-21T08:34:47;9.00;99.90
1626;DHT22;806;48.770;9.156;2023-11-21T08:37:16;9.00;99.90
1626;DHT22;806;48.770;9.156;2023-11-21T08:39:43;9.00;99.90
1626;DHT22;806;48.770;9.156;2023-11-21T08:42:12;9.20;99.90
1626;DHT22;806;48.770;9.156;2023-11-21T08:44:39;9.30;99.90
1626;DHT22;806;48.770;9.156;2023-11-21T08:47:06;9.40;99.90
1626;DHT22;806;48.770;9.156;2023-11-21T08:49:33;9.30;99.90
1626;DHT22;806;48.770;9.156;2023-11-21T08:52:00;9.40;99.90
1626;DHT22;806;48.770;9.156;2023-11-21T08:54:27;9.50;99.90
1626;DHT22;806;48.770;9.156;2023-11-21T08:56:54;9.50;99.90
1626;DHT22;806;48.770;9.156;2023-11-21T08:59:25;9.50;99.90
1626;DHT22;806;48.770;9.156;2023-11-21T09:01:52;9.70;99.90
1626;DHT22;806;48.770;9.156;2023-11-21T09:04:19;9.70;99.90
1626;DHT22;806;48.770;9.156;2023-11-21T09:06:46;9.90;99.90
1626;DHT22;806;48.770;9.156;2023-11-21T09:09:13;10.10;99.90
1626;DHT22;806;48.770;9.156;2023-11-21T09:11:40;10.10;99.90
1626;DHT22;806;48.770;9.156;2023-11-21T09:14:07;10.20;99.90
1626;DHT22;806;48.770;9.156;2023-11-21T09:16:35;10.30;99.90
1626;DHT22;806;48.770;9.156;2023-11-21T09:19:02;10.50;99.90
1626;DHT22;806;48.770;9.156;2023-11-21T09:21:31;10.50;99.90
1626;DHT22;806;48.770;9.156;2023-11-21T09:23:58;10.40;99.90
1626;DHT22;806;48.770;9.156;2023-11-21T09:26:25;10.30;99.90
1626;DHT22;806;48.770;9.156;2023-11-21T09:28:52;10.40;99.90
1626;DHT22;806;48.770;9.156;2023-11-21T09:31:22;10.40;99.90
1626;DHT22;806;48.770;9.156;2023-11-21T09:33:51;10.40;99.90
1626;DHT22;806;48.770;9.156;2023-11-21T09:36:18;10.40;99.90
1626;DHT22;806;48.770;9.156;2023-11-21T09:38:47;10.50;99.90
1626;DHT22;806;48.770;9.156;2023-11-21T09:41:34;10.40;99.90
1626;DHT22;806;48.770;9.156;2023-11-21T09:44:09;10.40;99.90
1626;DHT22;806;48.770;9.156;2023-11-21T09:46:40;10.70;99.90
1626;DHT22;806;48.770;9.156;2023-11-21T09:49:10;11.00;99.90
1626;DHT22;806;48.770;9.156;2023-11-21T09:51:39;11.30;99.90
1626;DHT22;806;48.770;9.156;2023-11-21T09:54:10;11.30;99.90
1626;DHT22;806;48.770;9.156;2023-11-21T09:56:38;11.00;99.90
1626;DHT22;806;48.770;9.156;2023-11-21T09:59:06;10.70;99.90
1626;DHT22;806;48.770;9.156;2023-11-21T10:01:36;10.80;99.90
1626;DHT22;806;48.770;9.156;2023-11-21T10:04:03;10.70;99.90
1626;DHT22;806;48.770;9.156;2023-11-21T10:06:33;10.60;99.90
1626;DHT22;806;48.770;9.156;2023-11-21T10:09:00;10.40;99.90
1626;DHT22;806;48.770;9.156;2023-11-21T10:11:27;10.30;99.90
1626;DHT22;806;48.770;9.156;2023-11-21T10:13:58;10.30;99.90
1626;DHT22;806;48.770;9.156;2023-11-21T10:16:26;10.30;99.90
1626;DHT22;806;48.770;9.156;2023-11-21T10:18:54;10.40;99.90
1626;DHT22;806;48.770;9.156;2023-11-21T10:21:22;10.40;99.90
1626;DHT22;806;48.770;9.156;2023-11-21T10:23:52;10.20;99.90
1626;DHT22;806;48.770;9.156;2023-11-21T10:26:20;10.00;99.90
1626;DHT22;806;48.770;9.156;2023-11-21T10:28:56;10.20;99.90
1626;DHT22;806;48.770;9.156;2023-11-21T10:31:23;10.20;99.90
1626;DHT22;806;48.770;9.156;2023-11-21T10:33:50;10.00;99.90
1626;DHT22;806;48.770;9.156;2023-11-21T10:36:25;10.10;99.90
1626;DHT22;806;48.770;9.156;2023-11-21T10:38:54;10.20;99.90
1626;DHT22;806;48.770;9.156;2023-11-21T10:41:22;10.30;99.90
1626;DHT22;806;48.770;9.156;2023-11-21T10:43:53;10.50;99.90
1626;DHT22;806;48.770;9.156;2023-11-21T10:46:21;10.60;99.90
1626;DHT22;806;48.770;9.156;2023-11-21T10:48:52;10.70;99.90
1626;DHT22;806;48.770;9.156;2023-11-21T10:51:21;10.80;99.90
1626;DHT22;806;48.770;9.156;2023-11-21T10:53:50;10.90;99.90
1626;DHT22;806;48.770;9.156;2023-11-21T10:56:19;10.90;99.90
1626;DHT22;806;48.770;9.156;2023-11-21T10:58:50;10.70;99.90
1626;DHT22;806;48.770;9.156;2023-11-21T11:01:18;10.60;99.90
1626;DHT22;806;48.770;9.156;2023-11-21T11:03:47;10.70;99.90
1626;DHT22;806;48.770;9.156;2023-11-21T11:06:14;10.70;99.90
1626;DHT22;806;48.770;9.156;2023-11-21T11:08:42;10.70;99.90
1626;DHT22;806;48.770;9.156;2023-11-21T11:11:09;10.80;99.90
1626;DHT22;806;48.770;9.156;2023-11-21T11:13:43;10.90;99.90
1626;DHT22;806;48.770;9.156;2023-11-21T11:16:12;10.90;99.90
1626;DHT22;806;48.770;9.156;2023-11-21T11:18:42;10.80;99.90
1626;DHT22;806;48.770;9.156;2023-11-21T11:21:19;10.80;99.90
1626;DHT22;806;48.770;9.156;2023-11-21T11:24:05;10.90;99.90
1626;DHT22;806;48.770;9.156;2023-11-21T11:26:44;11.10;99.90
1626;DHT22;806;48.770;9.156;2023-11-21T11:29:23;11.10;99.90
1626;DHT22;806;48.770;9.156;2023-11-21T11:32:06;11.20;99.90
1626;DHT22;806;48.770;9.156;2023-11-21T11:34:39;11.10;99.90
1626;DHT22;806;48.770;9.156;2023-11-21T11:37:09;11.20;99.90
1626;DHT22;806;48.770;9.156;2023-11-21T11:39:38;11.30;99.90
1626;DHT22;806;48.770;9.156;2023-11-21T11:42:08;11.40;99.90
1626;DHT22;806;48.770;9.156;2023-11-21T11:44:51;11.40;99.90
1626;DHT22;806;48.770;9.156;2023-11-21T11:47:24;11.50;99.90
1626;DHT22;806;48.770;9.156;2023-11-21T11:50:07;11.70;99.90
1626;DHT22;806;48.770;9.156;2023-11-21T11:52:40;11.60;99.90
1626;DHT22;806;48.770;9.156;2023-11-21T11:55:09;11.60;99.90
1626;DHT22;806;48.770;9.156;2023-11-21T11:57:41;11.80;99.90
1626;DHT22;806;48.770;9.156;2023-11-21T12:00:17;11.70;99.90
1626;DHT22;806;48.770;9.156;2023-11-21T12:02:47;11.70;99.90
1626;DHT22;806;48.770;9.156;2023-11-21T12:05:15;11.50;99.90
1626;DHT22;806;48.770;9.156;2023-11-21T12:07:48;11.60;99.90
1626;DHT22;806;48.770;9.156;2023-11-21T12:10:17;11.60;99.90
1626;DHT22;806;48.770;9.156;2023-11-21T12:12:47;11.80;99.90
1626;DHT22;806;48.770;9.156;2023-11-21T12:15:17;11.70;99.90
1626;DHT22;806;48.770;9.156;2023-11-21T12:17:44;11.60;99.90
1626;DHT22;806;48.770;9.156;2023-11-21T12:20:12;11.50;99.90
1626;DHT22;806;48.770;9.156;2023-11-21T12:22:47;11.50;99.90
1626;DHT22;806;48.770;9.156;2023-11-21T12:25:15;11.50;99.90
1626;DHT22;806;48.770;9.156;2023-11-21T12:27:44;11.50;99.90
1626;DHT22;806;48.770;9.156;2023-11-21T12:30:13;11.60;99.90
1626;DHT22;806;48.770;9.156;2023-11-21T12:32:43;11.70;99.90
1626;DHT22;806;48.770;9.156;2023-11-21T12:35:11;11.80;99.90
1626;DHT22;806;48.770;9.156;2023-11-21T12:37:40;11.70;99.90
1626;DHT22;806;48.770;9.156;2023-11-21T12:40:09;11.60;99.90
1626;DHT22;806;48.770;9.156;2023-11-21T12:42:38;11.60;99.90
1626;DHT22;806;48.770;9.156;2023-11-21T12:45:12;11.60;99.90
1626;DHT22;806;48.770;9.156;2023-11-21T12:47:48;11.70;99.90
1626;DHT22;806;48.770;9.156;2023-11-21T12:50:18;11.70;99.90
1626;DHT22;806;48.770;9.156;2023-11-21T12:52:51;11.50;99.90
1626;DHT22;806;48.770;9.156;2023-11-21T12:55:20;11.40;99.90
1626;DHT22;806;48.770;9.156;2023-11-21T12:57:49;11.30;99.90
1626;DHT22;806;48.770;9.156;2023-11-21T13:00:27;11.00;99.90
1626;DHT22;806;48.770;9.156;2023-11-21T13:02:57;10.90;99.90
1626;DHT22;806;48.770;9.156;2023-11-21T13:05:26;11.00;99.90
1626;DHT22;806;48.770;9.156;2023-11-21T13:07:53;11.30;99.90
1626;DHT22;806;48.770;9.156;2023-11-21T13:10:23;11.70;99.90
1626;DHT22;806;48.770;9.156;2023-11-21T13:12:53;12.00;99.90
1626;DHT22;806;48.770;9.156;2023-11-21T13:15:20;12.10;99.90
1626;DHT22;806;48.770;9.156;2023-11-21T13:17:47;12.20;99.90
1626;DHT22;806;48.770;9.156;2023-11-21T13:20:18;12.20;99.90
1626;DHT22;806;48.770;9.156;2023-11-21T13:22:49;12.10;99.90
1626;DHT22;806;48.770;9.156;2023-11-21T13:25:20;11.70;99.90
1626;DHT22;806;48.770;9.156;2023-11-21T13:27:47;11.50;99.90
1626;DHT22;806;48.770;9.156;2023-11-21T13:30:15;11.40;99.90
1626;DHT22;806;48.770;9.156;2023-11-21T13:32:43;11.40;99.90
1626;DHT22;806;48.770;9.156;2023-11-21T13:35:12;11.20;99.90
1626;DHT22;806;48.770;9.156;2023-11-21T13:37:51;11.10;99.90
1626;DHT22;806;48.770;9.156;2023-11-21T13:40:22;11.10;99.90
1626;DHT22;806;48.770;9.156;2023-11-21T13:42:52;11.00;99.90
1626;DHT22;806;48.770;9.156;2023-11-21T13:45:25;10.80;99.90
1626;DHT22;806;48.770;9.156;2023-11-21T13:47:54;10.90;99.90
1626;DHT22;806;48.770;9.156;2023-11-21T13:50:24;10.90;99.90
1626;DHT22;806;48.770;9.156;2023-11-21T13:52:57;10.90;99.90
1626;DHT22;806;48.770;9.156;2023-11-21T13:55:29;10.80;99.90
1626;DHT22;806;48.770;9.156;2023-11-21T13:57:56;10.80;99.90
1626;DHT22;806;48.770;9.156;2023-11-21T14:00:23;10.70;99.90
1626;DHT22;806;48.770;9.156;2023-11-21T14:03:11;10.70;99.90
1626;DHT22;806;48.770;9.156;2023-11-21T14:05:46;10.50;99.90
1626;DHT22;806;48.770;9.156;2023-11-21T14:08:18;10.50;99.90
1626;DHT22;806;48.770;9.156;2023-11-21T14:10:46;10.40;99.90
1626;DHT22;806;48.770;9.156;2023-11-21T14:13:21;10.20;99.90
1626;DHT22;806;48.770;9.156;2023-11-21T14:15:49;10.10;99.90
1626;DHT22;806;48.770;9.156;2023-11-21T14:18:18;10.10;99.90
1626;DHT22;806;48.770;9.156;2023-11-21T14:20:53;10.10;99.90
1626;DHT22;806;48.770;9.156;2023-11-21T14:23:21;10.20;99.90
1626;DHT22;806;48.770;9.156;2023-11-21T14:25:49;10.20;99.90
1626;DHT22;806;48.770;9.156;2023-11-21T14:28:17;10.30;99.90
1626;DHT22;806;48.770;9.156;2023-11-21T14:30:45;10.30;99.90
1626;DHT22;806;48.770;9.156;2023-11-21T14:33:12;10.30;99.90
1626;DHT22;806;48.770;9.156;2023-11-21T14:35:42;10.30;99.90
1626;DHT22;806;48.770;9.156;2023-11-21T14:38:09;10.30;99.90
1626;DHT22;806;48.770;9.156;2023-11-21T14:40:37;10.30;99.90
1626;DHT22;806;48.770;9.156;2023-11-21T14:43:04;10.30;99.90
1626;DHT22;806;48.770;9.156;2023-11-21T14:45:32;10.30;99.90
1626;DHT22;806;48.770;9.156;2023-11-21T14:47:59;10.30;99.90
1626;DHT22;806;48.770;9.156;2023-11-21T14:50:34;10.30;99.90
1626;DHT22;806;48.770;9.156;2023-11-21T14:53:13;10.30;99.90
1626;DHT22;806;48.770;9.156;2023-11-21T14:55:41;10.40;99.90
1626;DHT22;806;48.770;9.156;2023-11-21T14:58:22;10.40;99.90
1626;DHT22;806;48.770;9.156;2023-11-21T15:00:53;10.30;99.90
1626;DHT22;806;48.770;9.156;2023-11-21T15:03:24;10.30;99.90
1626;DHT22;806;48.770;9.156;2023-11-21T15:06:09;10.30;99.90
1626;DHT22;806;48.770;9.156;2023-11-21T15:08:49;10.30;99.90
1626;DHT22;806;48.770;9.156;2023-11-21T15:11:26;10.30;99.90
1626;DHT22;806;48.770;9.156;2023-11-21T15:13:57;10.20;99.90
1626;DHT22;806;48.770;9.156;2023-11-21T15:16:24;10.30;99.90
1626;DHT22;806;48.770;9.156;2023-11-21T15:18:52;10.20;99.90
1626;DHT22;806;48.770;9.156;2023-11-21T15:21:20;10.10;99.90
1626;DHT22;806;48.770;9.156;2023-11-21T15:23:50;10.00;99.90
1626;DHT22;806;48.770;9.156;2023-11-21T15:26:17;10.00;99.90
1626;DHT22;806;48.770;9.156;2023-11-21T15:28:45;9.90;99.90
1626;DHT22;806;48.770;9.156;2023-11-21T15:31:12;9.90;99.90
1626;DHT22;806;48.770;9.156;2023-11-21T15:33:42;10.00;99.90
1626;DHT22;806;48.770;9.156;2023-11-21T15:36:09;10.00;99.90
1626;DHT22;806;48.770;9.156;2023-11-21T15:38:36;10.00;99.90
1626;DHT22;806;48.770;9.156;2023-11-21T15:41:04;9.90;99.90
1626;DHT22;806;48.770;9.156;2023-11-21T15:43:34;9.80;99.90
1626;DHT22;806;48.770;9.156;2023-11-21T15:46:03;9.80;99.90
1626;DHT22;806;48.770;9.156;2023-11-21T15:48:33;9.80;99.90
1626;DHT22;806;48.770;9.156;2023-11-21T15:51:01;9.80;99.90
1626;DHT22;806;48.770;9.156;2023-11-21T15:53:28;9.80;99.90
1626;DHT22;806;48.770;9.156;2023-11-21T15:55:55;9.80;99.90
1626;DHT22;806;48.770;9.156;2023-11-21T15:58:22;9.80;99.90
1626;DHT22;806;48.770;9.156;2023-11-21T16:00:50;9.80;99.90
1626;DHT22;806;48.770;9.156;2023-11-21T16:03:18;9.80;99.90
1626;DHT22;806;48.770;9.156;2023-11-21T16:05:47;9.80;99.90
1626;DHT22;806;48.770;9.156;2023-11-21T16:08:15;9.80;99.90
1626;DHT22;806;48.770;9.156;2023-11-21T16:10:43;9.70;99.90
1626;DHT22;806;48.770;9.156;2023-11-21T16:13:10;9.60;99.90
1626;DHT22;806;48.770;9.156;2023-11-21T16:15:39;9.60;99.90
1626;DHT22;806;48.770;9.156;2023-11-21T16:18:06;9.60;99.90
1626;DHT22;806;48.770;9.156;2023-11-21T16:20:34;9.60;99.90
1626;DHT22;806;48.770;9.156;2023-11-21T16:23:01;9.60;99.90
1626;DHT22;806;48.770;9.156;2023-11-21T16:25:29;9.60;99.90
1626;DHT22;806;48.770;9.156;2023-11-21T16:27:56;9.60;99.90
1626;DHT22;806;48.770;9.156;2023-11-21T16:30:29;9.60;99.90
1626;DHT22;806;48.770;9.156;2023-11-21T16:32:58;9.60;99.90
1626;DHT22;806;48.770;9.156;2023-11-21T16:35:25;9.60;99.90
1626;DHT22;806;48.770;9.156;2023-11-21T16:37:54;9.60;99.90